sensor_id;sensor_type;location;lat;lon;timestamp;pressure;altitude;pressure_sealevel;temperature;humidity
3294;BME280;1659;51.470;6.770;2022-09-09T00:00:16;100652.47;;;15.21;84.59
3294;BME280;1659;51.470;6.770;2022-09-09T00:02:49;100660.41;;;15.22;84.69
3294;BME280;1659;51.470;6.770;2022-09-09T00:05:25;100644.44;;;15.22;84.84
3294;BME280;1659;51.470;6.770;2022-09-09T00:07:59;100645.25;;;15.24;84.62
3294;BME280;1659;51.470;6.770;2022-09-09T00:10:28;100644.22;;;15.27;84.71
3294;BME280;1659;51.470;6.770;2022-09-09T00:13:02;100638.84;;;15.28;84.61
3294;BME280;1659;51.470;6.770;2022-09-09T00:15:38;100638.84;;;15.28;84.64
3294;BME280;1659;51.470;6.770;2022-09-09T00:18:17;100645.97;;;15.28;84.97
3294;BME280;1659;51.470;6.770;2022-09-09T00:20:53;100650.56;;;15.24;85.08
3294;BME280;1659;51.470;6.770;2022-09-09T00:23:24;100659.53;;;15.22;85.15
3294;BME280;1659;51.470;6.770;2022-09-09T00:25:58;100654.34;;;15.19;85.57
3294;BME280;1659;51.470;6.770;2022-09-09T00:28:30;100654.41;;;15.17;85.87
3294;BME280;1659;51.470;6.770;2022-09-09T00:31:04;100648.28;;;15.15;85.78
3294;BME280;1659;51.470;6.770;2022-09-09T00:33:36;100643.00;;;15.14;86.02
3294;BME280;1659;51.470;6.770;2022-09-09T00:36:10;100645.72;;;15.12;86.43
3294;BME280;1659;51.470;6.770;2022-09-09T00:38:42;100646.66;;;15.11;86.43
3294;BME280;1659;51.470;6.770;2022-09-09T00:41:14;100644.72;;;15.15;86.45
3294;BME280;1659;51.470;6.770;2022-09-09T00:43:49;100639.34;;;15.16;86.60
3294;BME280;1659;51.470;6.770;2022-09-09T00:46:41;100639.22;;;15.19;86.60
3294;BME280;1659;51.470;6.770;2022-09-09T00:49:15;100641.88;;;15.19;86.67
3294;BME280;1659;51.470;6.770;2022-09-09T00:51:54;100649.88;;;15.19;86.91
3294;BME280;1659;51.470;6.770;2022-09-09T00:54:33;100657.00;;;15.19;86.82
3294;BME280;1659;51.470;6.770;2022-09-09T00:57:13;100656.13;;;15.18;86.98
3294;BME280;1659;51.470;6.770;2022-09-09T00:59:47;100651.75;;;15.17;86.88
3294;BME280;1659;51.470;6.770;2022-09-09T01:02:21;100654.47;;;15.16;87.00
3294;BME280;1659;51.470;6.770;2022-09-09T01:04:51;100659.72;;;15.17;87.27
3294;BME280;1659;51.470;6.770;2022-09-09T01:07:21;100655.31;;;15.16;87.27
3294;BME280;1659;51.470;6.770;2022-09-09T01:09:54;100645.47;;;15.18;87.60
3294;BME280;1659;51.470;6.770;2022-09-09T01:12:30;100649.06;;;15.17;87.64
3294;BME280;1659;51.470;6.770;2022-09-09T01:15:09;100636.88;;;15.12;87.79
3294;BME280;1659;51.470;6.770;2022-09-09T01:17:48;100637.91;;;15.07;87.90
3294;BME280;1659;51.470;6.770;2022-09-09T01:20:22;100638.97;;;15.03;87.90
3294;BME280;1659;51.470;6.770;2022-09-09T01:23:04;100641.75;;;15.00;88.09
3294;BME280;1659;51.470;6.770;2022-09-09T01:26:08;100624.19;;;14.96;88.36
3294;BME280;1659;51.470;6.770;2022-09-09T01:28:37;100634.94;;;14.93;88.26
3294;BME280;1659;51.470;6.770;2022-09-09T01:31:06;100627.97;;;14.90;88.33
3294;BME280;1659;51.470;6.770;2022-09-09T01:33:35;100626.31;;;14.86;88.54
3294;BME280;1659;51.470;6.770;2022-09-09T01:36:05;100623.84;;;14.82;88.48
3294;BME280;1659;51.470;6.770;2022-09-09T01:38:34;100624.81;;;14.79;88.90
3294;BME280;1659;51.470;6.770;2022-09-09T01:41:04;100619.56;;;14.78;88.68
3294;BME280;1659;51.470;6.770;2022-09-09T01:43:30;100624.94;;;14.76;88.77
3294;BME280;1659;51.470;6.770;2022-09-09T01:46:00;100622.41;;;14.73;88.73
3294;BME280;1659;51.470;6.770;2022-09-09T01:48:28;100628.66;;;14.72;88.77
3294;BME280;1659;51.470;6.770;2022-09-09T01:50:54;100624.25;;;14.71;89.00
3294;BME280;1659;51.470;6.770;2022-09-09T01:53:22;100630.44;;;14.71;88.97
3294;BME280;1659;51.470;6.770;2022-09-09T01:56:05;100619.75;;;14.73;88.90
3294;BME280;1659;51.470;6.770;2022-09-09T01:58:46;100619.69;;;14.75;89.13
3294;BME280;1659;51.470;6.770;2022-09-09T02:01:24;100626.63;;;14.79;88.85
3294;BME280;1659;51.470;6.770;2022-09-09T02:03:56;100627.44;;;14.81;89.17
3294;BME280;1659;51.470;6.770;2022-09-09T02:06:27;100621.94;;;14.85;89.29
3294;BME280;1659;51.470;6.770;2022-09-09T02:08:56;100626.16;;;14.91;89.50
3294;BME280;1659;51.470;6.770;2022-09-09T02:11:27;100629.50;;;14.96;89.42
3294;BME280;1659;51.470;6.770;2022-09-09T02:13:57;100630.19;;;15.01;89.38
3294;BME280;1659;51.470;6.770;2022-09-09T02:16:28;100624.66;;;15.06;89.61
3294;BME280;1659;51.470;6.770;2022-09-09T02:19:01;100623.69;;;15.08;89.59
3294;BME280;1659;51.470;6.770;2022-09-09T02:21:30;100628.81;;;15.13;89.57
3294;BME280;1659;51.470;6.770;2022-09-09T02:24:02;100629.59;;;15.17;89.40
3294;BME280;1659;51.470;6.770;2022-09-09T02:26:33;100625.00;;;15.20;89.64
3294;BME280;1659;51.470;6.770;2022-09-09T02:29:02;100622.19;;;15.23;89.62
3294;BME280;1659;51.470;6.770;2022-09-09T02:31:32;100623.88;;;15.26;89.46
3294;BME280;1659;51.470;6.770;2022-09-09T02:34:03;100614.88;;;15.28;89.55
3294;BME280;1659;51.470;6.770;2022-09-09T02:36:33;100613.91;;;15.31;89.52
3294;BME280;1659;51.470;6.770;2022-09-09T02:39:00;100625.31;;;15.35;89.60
3294;BME280;1659;51.470;6.770;2022-09-09T02:41:33;100620.78;;;15.37;89.42
3294;BME280;1659;51.470;6.770;2022-09-09T02:44:00;100623.38;;;15.38;89.32
3294;BME280;1659;51.470;6.770;2022-09-09T02:46:36;100622.53;;;15.38;89.46
3294;BME280;1659;51.470;6.770;2022-09-09T02:49:10;100618.97;;;15.37;89.13
3294;BME280;1659;51.470;6.770;2022-09-09T02:51:46;100617.25;;;15.36;89.45
3294;BME280;1659;51.470;6.770;2022-09-09T02:54:21;100623.56;;;15.34;89.37
3294;BME280;1659;51.470;6.770;2022-09-09T02:56:53;100622.81;;;15.30;89.47
3294;BME280;1659;51.470;6.770;2022-09-09T02:59:22;100621.22;;;15.26;89.56
3294;BME280;1659;51.470;6.770;2022-09-09T03:01:49;100620.28;;;15.27;89.60
3294;BME280;1659;51.470;6.770;2022-09-09T03:04:15;100615.84;;;15.27;89.50
3294;BME280;1659;51.470;6.770;2022-09-09T03:06:42;100617.69;;;15.25;89.56
3294;BME280;1659;51.470;6.770;2022-09-09T03:09:09;100618.69;;;15.23;89.57
3294;BME280;1659;51.470;6.770;2022-09-09T03:11:36;100614.22;;;15.23;89.63
3294;BME280;1659;51.470;6.770;2022-09-09T03:14:04;100616.88;;;15.23;89.60
3294;BME280;1659;51.470;6.770;2022-09-09T03:16:31;100609.84;;;15.22;89.64
3294;BME280;1659;51.470;6.770;2022-09-09T03:18:59;100617.75;;;15.24;89.86
3294;BME280;1659;51.470;6.770;2022-09-09T03:21:26;100609.72;;;15.25;89.76
3294;BME280;1659;51.470;6.770;2022-09-09T03:23:52;100616.63;;;15.29;89.54
3294;BME280;1659;51.470;6.770;2022-09-09T03:26:19;100609.28;;;15.36;89.62
3294;BME280;1659;51.470;6.770;2022-09-09T03:28:46;100610.75;;;15.43;89.77
3294;BME280;1659;51.470;6.770;2022-09-09T03:31:14;100610.34;;;15.53;89.25
3294;BME280;1659;51.470;6.770;2022-09-09T03:33:40;100609.22;;;15.58;89.14
3294;BME280;1659;51.470;6.770;2022-09-09T03:36:07;100612.44;;;15.66;88.98
3294;BME280;1659;51.470;6.770;2022-09-09T03:38:35;100600.81;;;15.69;88.89
3294;BME280;1659;51.470;6.770;2022-09-09T03:41:02;100604.19;;;15.73;88.68
3294;BME280;1659;51.470;6.770;2022-09-09T03:43:31;100597.06;;;15.73;88.79
3294;BME280;1659;51.470;6.770;2022-09-09T03:45:58;100603.22;;;15.75;88.72
3294;BME280;1659;51.470;6.770;2022-09-09T03:48:26;100608.50;;;15.77;88.77
3294;BME280;1659;51.470;6.770;2022-09-09T03:50:54;100606.69;;;15.77;88.67
3294;BME280;1659;51.470;6.770;2022-09-09T03:53:23;100602.31;;;15.76;88.56
3294;BME280;1659;51.470;6.770;2022-09-09T03:55:51;100599.72;;;15.73;88.64
3294;BME280;1659;51.470;6.770;2022-09-09T03:58:20;100601.59;;;15.71;88.62
3294;BME280;1659;51.470;6.770;2022-09-09T04:00:53;100599.91;;;15.68;88.69
3294;BME280;1659;51.470;6.770;2022-09-09T04:03:20;100608.03;;;15.65;88.72
3294;BME280;1659;51.470;6.770;2022-09-09T04:05:50;100610.69;;;15.65;88.92
3294;BME280;1659;51.470;6.770;2022-09-09T04:08:16;100601.00;;;15.64;88.84
3294;BME280;1659;51.470;6.770;2022-09-09T04:10:44;100602.50;;;15.70;88.90
3294;BME280;1659;51.470;6.770;2022-09-09T04:13:12;100597.91;;;15.75;88.82
3294;BME280;1659;51.470;6.770;2022-09-09T04:15:41;100602.25;;;15.78;88.69
3294;BME280;1659;51.470;6.770;2022-09-09T04:18:08;100604.75;;;15.81;88.64
3294;BME280;1659;51.470;6.770;2022-09-09T04:20:35;100606.56;;;15.80;88.69
3294;BME280;1659;51.470;6.770;2022-09-09T04:23:03;100609.16;;;15.82;88.61
3294;BME280;1659;51.470;6.770;2022-09-09T04:25:30;100609.09;;;15.83;88.48
3294;BME280;1659;51.470;6.770;2022-09-09T04:27:57;100609.03;;;15.85;88.61
3294;BME280;1659;51.470;6.770;2022-09-09T04:30:24;100607.16;;;15.87;88.46
3294;BME280;1659;51.470;6.770;2022-09-09T04:32:52;100599.97;;;15.89;88.53
3294;BME280;1659;51.470;6.770;2022-09-09T04:35:19;100602.56;;;15.91;88.46
3294;BME280;1659;51.470;6.770;2022-09-09T04:37:46;100600.75;;;15.91;88.43
3294;BME280;1659;51.470;6.770;2022-09-09T04:40:15;100601.56;;;15.93;88.47
3294;BME280;1659;51.470;6.770;2022-09-09T04:42:41;100605.97;;;15.94;88.29
3294;BME280;1659;51.470;6.770;2022-09-09T04:45:09;100604.94;;;15.97;88.27
3294;BME280;1659;51.470;6.770;2022-09-09T04:47:38;100612.88;;;15.98;88.18
3294;BME280;1659;51.470;6.770;2022-09-09T04:50:06;100607.53;;;15.98;88.18
3294;BME280;1659;51.470;6.770;2022-09-09T04:52:33;100606.63;;;15.99;88.00
3294;BME280;1659;51.470;6.770;2022-09-09T04:55:00;100603.91;;;16.01;87.95
3294;BME280;1659;51.470;6.770;2022-09-09T04:57:28;100609.22;;;16.01;87.82
3294;BME280;1659;51.470;6.770;2022-09-09T04:59:57;100610.94;;;16.02;87.79
3294;BME280;1659;51.470;6.770;2022-09-09T05:02:23;100615.28;;;16.04;87.83
3294;BME280;1659;51.470;6.770;2022-09-09T05:04:50;100613.41;;;16.07;87.57
3294;BME280;1659;51.470;6.770;2022-09-09T05:07:16;100614.19;;;16.09;87.60
3294;BME280;1659;51.470;6.770;2022-09-09T05:09:44;100622.06;;;16.12;87.39
3294;BME280;1659;51.470;6.770;2022-09-09T05:12:12;100609.66;;;16.11;87.31
3294;BME280;1659;51.470;6.770;2022-09-09T05:14:40;100606.09;;;16.12;87.25
3294;BME280;1659;51.470;6.770;2022-09-09T05:17:06;100614.00;;;16.13;87.16
3294;BME280;1659;51.470;6.770;2022-09-09T05:19:33;100611.41;;;16.12;87.14
3294;BME280;1659;51.470;6.770;2022-09-09T05:21:59;100610.69;;;16.08;87.26
3294;BME280;1659;51.470;6.770;2022-09-09T05:24:26;100608.03;;;16.08;87.18
3294;BME280;1659;51.470;6.770;2022-09-09T05:26:53;100603.59;;;16.07;87.16
3294;BME280;1659;51.470;6.770;2022-09-09T05:29:21;100595.69;;;16.05;87.16
3294;BME280;1659;51.470;6.770;2022-09-09T05:31:49;100591.38;;;16.03;87.12
3294;BME280;1659;51.470;6.770;2022-09-09T05:34:15;100602.09;;;16.01;87.25
3294;BME280;1659;51.470;6.770;2022-09-09T05:36:42;100594.16;;;16.00;87.22
3294;BME280;1659;51.470;6.770;2022-09-09T05:39:08;100593.22;;;16.01;87.14
3294;BME280;1659;51.470;6.770;2022-09-09T05:41:37;100593.06;;;16.04;87.13
3294;BME280;1659;51.470;6.770;2022-09-09T05:44:04;100593.91;;;16.06;87.01
3294;BME280;1659;51.470;6.770;2022-09-09T05:46:31;100594.69;;;16.08;87.04
3294;BME280;1659;51.470;6.770;2022-09-09T05:48:59;100599.00;;;16.11;86.85
3294;BME280;1659;51.470;6.770;2022-09-09T05:51:27;100598.03;;;16.13;86.87
3294;BME280;1659;51.470;6.770;2022-09-09T05:53:55;100596.06;;;16.17;86.88
3294;BME280;1659;51.470;6.770;2022-09-09T05:56:25;100600.31;;;16.21;86.85
3294;BME280;1659;51.470;6.770;2022-09-09T05:58:52;100598.25;;;16.28;86.75
3294;BME280;1659;51.470;6.770;2022-09-09T06:01:21;100598.06;;;16.32;86.54
3294;BME280;1659;51.470;6.770;2022-09-09T06:03:49;100610.25;;;16.38;86.30
3294;BME280;1659;51.470;6.770;2022-09-09T06:06:20;100608.28;;;16.41;86.01
3294;BME280;1659;51.470;6.770;2022-09-09T06:08:48;100608.94;;;16.47;86.00
3294;BME280;1659;51.470;6.770;2022-09-09T06:11:17;100607.88;;;16.51;85.79
3294;BME280;1659;51.470;6.770;2022-09-09T06:13:45;100609.38;;;16.56;85.77
3294;BME280;1659;51.470;6.770;2022-09-09T06:16:16;100615.22;;;16.65;85.58
3294;BME280;1659;51.470;6.770;2022-09-09T06:18:43;100609.63;;;16.71;85.50
3294;BME280;1659;51.470;6.770;2022-09-09T06:21:14;100613.88;;;16.75;85.17
3294;BME280;1659;51.470;6.770;2022-09-09T06:23:43;100604.88;;;16.77;85.15
3294;BME280;1659;51.470;6.770;2022-09-09T06:26:12;100614.53;;;16.80;85.00
3294;BME280;1659;51.470;6.770;2022-09-09T06:28:40;100609.00;;;16.85;84.79
3294;BME280;1659;51.470;6.770;2022-09-09T06:31:10;100614.75;;;16.94;84.69
3294;BME280;1659;51.470;6.770;2022-09-09T06:33:38;100614.94;;;17.09;84.18
3294;BME280;1659;51.470;6.770;2022-09-09T06:36:07;100612.34;;;17.44;83.84
3294;BME280;1659;51.470;6.770;2022-09-09T06:38:39;100609.22;;;17.89;82.52
3294;BME280;1659;51.470;6.770;2022-09-09T06:41:08;100612.38;;;18.14;81.72
3294;BME280;1659;51.470;6.770;2022-09-09T06:43:35;100609.25;;;18.23;80.96
3294;BME280;1659;51.470;6.770;2022-09-09T06:46:03;100616.22;;;18.25;80.00
3294;BME280;1659;51.470;6.770;2022-09-09T06:48:30;100614.50;;;18.24;79.99
3294;BME280;1659;51.470;6.770;2022-09-09T06:51:02;100614.41;;;18.26;80.14
3294;BME280;1659;51.470;6.770;2022-09-09T06:53:29;100609.94;;;18.26;78.96
3294;BME280;1659;51.470;6.770;2022-09-09T06:55:58;100625.34;;;18.39;78.59
3294;BME280;1659;51.470;6.770;2022-09-09T06:58:27;100615.28;;;18.76;77.88
3294;BME280;1659;51.470;6.770;2022-09-09T07:01:02;100622.28;;;18.78;76.15
3294;BME280;1659;51.470;6.770;2022-09-09T07:03:28;100622.78;;;18.69;76.01
3294;BME280;1659;51.470;6.770;2022-09-09T07:05:55;100620.78;;;18.57;76.19
3294;BME280;1659;51.470;6.770;2022-09-09T07:08:22;100620.25;;;18.50;76.03
3294;BME280;1659;51.470;6.770;2022-09-09T07:10:50;100618.97;;;18.57;75.57
3294;BME280;1659;51.470;6.770;2022-09-09T07:13:19;100626.25;;;18.71;74.97
3294;BME280;1659;51.470;6.770;2022-09-09T07:15:47;100625.28;;;18.90;74.78
3294;BME280;1659;51.470;6.770;2022-09-09T07:18:14;100624.81;;;19.13;74.39
3294;BME280;1659;51.470;6.770;2022-09-09T07:20:40;100629.41;;;19.73;73.29
3294;BME280;1659;51.470;6.770;2022-09-09T07:23:07;100626.31;;;20.69;70.25
3294;BME280;1659;51.470;6.770;2022-09-09T07:25:34;100639.72;;;20.83;68.85
3294;BME280;1659;51.470;6.770;2022-09-09T07:28:00;100629.53;;;20.45;68.38
3294;BME280;1659;51.470;6.770;2022-09-09T07:30:28;100639.88;;;20.08;69.24
3294;BME280;1659;51.470;6.770;2022-09-09T07:32:56;100640.97;;;19.90;70.28
3294;BME280;1659;51.470;6.770;2022-09-09T07:35:24;100639.88;;;20.23;69.50
3294;BME280;1659;51.470;6.770;2022-09-09T07:37:52;100633.09;;;20.60;68.74
3294;BME280;1659;51.470;6.770;2022-09-09T07:40:18;100641.53;;;20.97;67.04
3294;BME280;1659;51.470;6.770;2022-09-09T07:42:47;100638.84;;;20.83;66.56
3294;BME280;1659;51.470;6.770;2022-09-09T07:45:13;100639.50;;;20.58;66.74
3294;BME280;1659;51.470;6.770;2022-09-09T07:47:40;100639.97;;;20.21;67.63
3294;BME280;1659;51.470;6.770;2022-09-09T07:50:09;100642.84;;;20.18;67.71
3294;BME280;1659;51.470;6.770;2022-09-09T07:52:37;100648.69;;;20.25;67.73
3294;BME280;1659;51.470;6.770;2022-09-09T07:55:04;100641.88;;;20.05;67.87
3294;BME280;1659;51.470;6.770;2022-09-09T07:57:31;100649.97;;;19.89;68.04
3294;BME280;1659;51.470;6.770;2022-09-09T07:59:57;100640.06;;;20.19;67.44
3294;BME280;1659;51.470;6.770;2022-09-09T08:02:24;100648.34;;;20.31;65.87
3294;BME280;1659;51.470;6.770;2022-09-09T08:04:53;100653.69;;;20.31;65.78
3294;BME280;1659;51.470;6.770;2022-09-09T08:07:21;100660.00;;;20.44;65.76
3294;BME280;1659;51.470;6.770;2022-09-09T08:09:48;100657.34;;;20.44;64.67
3294;BME280;1659;51.470;6.770;2022-09-09T08:12:15;100650.59;;;20.08;65.09
3294;BME280;1659;51.470;6.770;2022-09-09T08:14:42;100656.09;;;19.91;65.83
3294;BME280;1659;51.470;6.770;2022-09-09T08:17:08;100654.53;;;19.87;65.94
3294;BME280;1659;51.470;6.770;2022-09-09T08:19:35;100647.25;;;20.33;65.17
3294;BME280;1659;51.470;6.770;2022-09-09T08:22:02;100657.38;;;20.59;64.32
3294;BME280;1659;51.470;6.770;2022-09-09T08:24:30;100666.50;;;20.85;63.11
3294;BME280;1659;51.470;6.770;2022-09-09T08:26:57;100652.38;;;21.37;61.11
3294;BME280;1659;51.470;6.770;2022-09-09T08:29:24;100654.13;;;21.24;59.97
3294;BME280;1659;51.470;6.770;2022-09-09T08:31:52;100678.94;;;20.86;60.38
3294;BME280;1659;51.470;6.770;2022-09-09T08:34:21;100656.47;;;20.58;61.27
3294;BME280;1659;51.470;6.770;2022-09-09T08:36:49;100654.41;;;20.63;61.18
3294;BME280;1659;51.470;6.770;2022-09-09T08:39:17;100669.53;;;21.07;60.09
3294;BME280;1659;51.470;6.770;2022-09-09T08:41:59;100645.78;;;21.96;58.47
3294;BME280;1659;51.470;6.770;2022-09-09T08:44:41;100647.44;;;22.75;56.94
3294;BME280;1659;51.470;6.770;2022-09-09T08:47:16;100649.31;;;23.60;56.10
3294;BME280;1659;51.470;6.770;2022-09-09T08:50:00;100646.03;;;24.27;54.22
3294;BME280;1659;51.470;6.770;2022-09-09T08:52:30;100646.63;;;23.84;54.20
3294;BME280;1659;51.470;6.770;2022-09-09T08:55:03;100649.53;;;24.05;52.83
3294;BME280;1659;51.470;6.770;2022-09-09T08:57:40;100656.88;;;24.03;52.76
3294;BME280;1659;51.470;6.770;2022-09-09T09:00:09;100661.97;;;23.60;52.64
3294;BME280;1659;51.470;6.770;2022-09-09T09:02:42;100642.16;;;23.24;53.07
3294;BME280;1659;51.470;6.770;2022-09-09T09:05:19;100649.34;;;22.86;54.07
3294;BME280;1659;51.470;6.770;2022-09-09T09:07:59;100648.94;;;22.54;54.89
3294;BME280;1659;51.470;6.770;2022-09-09T09:10:40;100663.66;;;22.10;55.88
3294;BME280;1659;51.470;6.770;2022-09-09T09:13:14;100672.94;;;21.65;56.85
3294;BME280;1659;51.470;6.770;2022-09-09T09:15:44;100672.09;;;21.23;57.35
3294;BME280;1659;51.470;6.770;2022-09-09T09:18:15;100683.47;;;20.85;57.88
3294;BME280;1659;51.470;6.770;2022-09-09T09:20:50;100680.06;;;20.53;58.49
3294;BME280;1659;51.470;6.770;2022-09-09T09:23:22;100679.47;;;20.33;58.82
3294;BME280;1659;51.470;6.770;2022-09-09T09:25:50;100675.81;;;20.20;59.08
3294;BME280;1659;51.470;6.770;2022-09-09T09:28:24;100681.38;;;20.17;59.59
3294;BME280;1659;51.470;6.770;2022-09-09T09:30:54;100682.50;;;20.13;59.28
3294;BME280;1659;51.470;6.770;2022-09-09T09:33:26;100683.13;;;20.02;59.33
3294;BME280;1659;51.470;6.770;2022-09-09T09:35:54;100690.00;;;19.92;59.34
3294;BME280;1659;51.470;6.770;2022-09-09T09:38:23;100670.84;;;19.84;59.76
3294;BME280;1659;51.470;6.770;2022-09-09T09:40:51;100669.28;;;19.79;60.04
3294;BME280;1659;51.470;6.770;2022-09-09T09:43:26;100677.75;;;19.72;59.93
3294;BME280;1659;51.470;6.770;2022-09-09T09:45:54;100680.50;;;19.70;60.20
3294;BME280;1659;51.470;6.770;2022-09-09T09:48:23;100703.88;;;19.68;60.51
3294;BME280;1659;51.470;6.770;2022-09-09T09:50:51;100685.03;;;19.70;60.36
3294;BME280;1659;51.470;6.770;2022-09-09T09:53:24;100680.22;;;19.76;60.28
3294;BME280;1659;51.470;6.770;2022-09-09T09:55:55;100676.56;;;19.77;60.19
3294;BME280;1659;51.470;6.770;2022-09-09T09:58:26;100678.28;;;19.78;60.06
3294;BME280;1659;51.470;6.770;2022-09-09T10:00:55;100681.16;;;19.75;60.25
3294;BME280;1659;51.470;6.770;2022-09-09T10:03:24;100668.34;;;19.80;60.36
3294;BME280;1659;51.470;6.770;2022-09-09T10:05:53;100677.78;;;20.02;60.43
3294;BME280;1659;51.470;6.770;2022-09-09T10:08:22;100692.44;;;20.41;60.03
3294;BME280;1659;51.470;6.770;2022-09-09T10:10:56;100685.25;;;21.13;58.71
3294;BME280;1659;51.470;6.770;2022-09-09T10:13:30;100664.41;;;21.99;56.79
3294;BME280;1659;51.470;6.770;2022-09-09T10:16:13;100653.13;;;22.84;55.57
3294;BME280;1659;51.470;6.770;2022-09-09T10:18:56;100662.19;;;22.83;54.53
3294;BME280;1659;51.470;6.770;2022-09-09T10:21:40;100675.13;;;22.52;54.22
3294;BME280;1659;51.470;6.770;2022-09-09T10:24:25;100665.63;;;22.08;54.09
3294;BME280;1659;51.470;6.770;2022-09-09T10:27:01;100663.22;;;21.63;54.33
3294;BME280;1659;51.470;6.770;2022-09-09T10:29:53;100661.69;;;21.31;55.14
3294;BME280;1659;51.470;6.770;2022-09-09T10:32:33;100663.94;;;21.10;55.73
3294;BME280;1659;51.470;6.770;2022-09-09T10:35:10;100661.28;;;20.96;56.28
3294;BME280;1659;51.470;6.770;2022-09-09T10:37:52;100663.91;;;20.83;56.69
3294;BME280;1659;51.470;6.770;2022-09-09T10:40:31;100671.09;;;20.68;56.96
3294;BME280;1659;51.470;6.770;2022-09-09T10:43:04;100654.94;;;20.54;57.17
3294;BME280;1659;51.470;6.770;2022-09-09T10:45:45;100656.56;;;20.42;57.21
3294;BME280;1659;51.470;6.770;2022-09-09T10:48:31;100658.41;;;20.27;57.21
3294;BME280;1659;51.470;6.770;2022-09-09T10:51:07;100658.94;;;20.18;57.54
3294;BME280;1659;51.470;6.770;2022-09-09T10:53:48;100658.47;;;20.11;57.71
3294;BME280;1659;51.470;6.770;2022-09-09T10:56:20;100656.72;;;20.10;58.07
3294;BME280;1659;51.470;6.770;2022-09-09T10:58:52;100659.41;;;20.10;58.29
3294;BME280;1659;51.470;6.770;2022-09-09T11:01:25;100660.19;;;20.12;57.80
3294;BME280;1659;51.470;6.770;2022-09-09T11:04:00;100648.50;;;20.13;57.64
3294;BME280;1659;51.470;6.770;2022-09-09T11:06:33;100651.47;;;20.23;57.81
3294;BME280;1659;51.470;6.770;2022-09-09T11:09:03;100644.50;;;20.35;57.87
3294;BME280;1659;51.470;6.770;2022-09-09T11:11:34;100644.13;;;20.41;57.65
3294;BME280;1659;51.470;6.770;2022-09-09T11:14:09;100637.59;;;20.45;57.59
3294;BME280;1659;51.470;6.770;2022-09-09T11:16:42;100638.44;;;20.46;57.55
3294;BME280;1659;51.470;6.770;2022-09-09T11:19:16;100643.53;;;20.50;57.25
3294;BME280;1659;51.470;6.770;2022-09-09T11:21:47;100640.09;;;20.48;57.13
3294;BME280;1659;51.470;6.770;2022-09-09T11:24:19;100651.50;;;20.52;57.08
3294;BME280;1659;51.470;6.770;2022-09-09T11:26:50;100643.56;;;20.65;56.76
3294;BME280;1659;51.470;6.770;2022-09-09T11:29:29;100640.69;;;20.68;56.66
3294;BME280;1659;51.470;6.770;2022-09-09T11:32:12;100646.66;;;20.73;56.67
3294;BME280;1659;51.470;6.770;2022-09-09T11:34:53;100642.31;;;20.85;56.72
3294;BME280;1659;51.470;6.770;2022-09-09T11:40:22;100640.47;;;21.00;56.92
3294;BME280;1659;51.470;6.770;2022-09-09T11:43:01;100622.59;;;21.13;56.32
3294;BME280;1659;51.470;6.770;2022-09-09T11:45:30;100637.06;;;21.25;55.77
3294;BME280;1659;51.470;6.770;2022-09-09T11:48:00;100637.06;;;21.25;55.89
3294;BME280;1659;51.470;6.770;2022-09-09T11:50:30;100629.94;;;21.24;55.99
3294;BME280;1659;51.470;6.770;2022-09-09T11:53:17;100632.81;;;21.21;56.03
3294;BME280;1659;51.470;6.770;2022-09-09T11:55:48;100640.84;;;21.08;55.67
3294;BME280;1659;51.470;6.770;2022-09-09T11:58:16;100643.34;;;20.97;55.87
3294;BME280;1659;51.470;6.770;2022-09-09T12:00:45;100642.00;;;20.89;56.30
3294;BME280;1659;51.470;6.770;2022-09-09T12:03:35;100631.94;;;20.93;56.43
3294;BME280;1659;51.470;6.770;2022-09-09T12:06:11;100635.66;;;21.05;56.40
3294;BME280;1659;51.470;6.770;2022-09-09T12:08:43;100620.38;;;21.05;56.49
3294;BME280;1659;51.470;6.770;2022-09-09T12:11:10;100633.47;;;20.97;56.01
3294;BME280;1659;51.470;6.770;2022-09-09T12:13:36;100640.78;;;20.81;56.10
3294;BME280;1659;51.470;6.770;2022-09-09T12:16:03;100633.41;;;20.70;56.63
3294;BME280;1659;51.470;6.770;2022-09-09T12:18:33;100646.25;;;20.65;56.76
3294;BME280;1659;51.470;6.770;2022-09-09T12:21:05;100635.09;;;20.56;56.71
3294;BME280;1659;51.470;6.770;2022-09-09T12:23:40;100649.31;;;20.59;56.60
3294;BME280;1659;51.470;6.770;2022-09-09T12:26:22;100640.03;;;20.64;56.19
3294;BME280;1659;51.470;6.770;2022-09-09T12:28:59;100650.66;;;20.80;56.23
3294;BME280;1659;51.470;6.770;2022-09-09T12:31:33;100652.00;;;20.87;56.43
3294;BME280;1659;51.470;6.770;2022-09-09T12:34:10;100661.56;;;20.91;56.15
3294;BME280;1659;51.470;6.770;2022-09-09T12:36:40;100672.97;;;20.52;57.26
3294;BME280;1659;51.470;6.770;2022-09-09T12:39:16;100673.00;;;19.77;60.56
3294;BME280;1659;51.470;6.770;2022-09-09T12:41:51;100682.56;;;19.35;62.53
3294;BME280;1659;51.470;6.770;2022-09-09T12:44:21;100677.28;;;19.17;63.56
3294;BME280;1659;51.470;6.770;2022-09-09T12:46:48;100672.47;;;19.08;64.46
3294;BME280;1659;51.470;6.770;2022-09-09T12:49:27;100676.41;;;19.01;64.90
3294;BME280;1659;51.470;6.770;2022-09-09T12:51:57;100682.97;;;18.95;65.19
3294;BME280;1659;51.470;6.770;2022-09-09T12:54:25;100683.63;;;18.83;65.85
3294;BME280;1659;51.470;6.770;2022-09-09T12:56:51;100672.34;;;18.76;66.44
3294;BME280;1659;51.470;6.770;2022-09-09T12:59:24;100685.06;;;18.73;66.80
3294;BME280;1659;51.470;6.770;2022-09-09T13:01:57;100684.28;;;18.71;66.95
3294;BME280;1659;51.470;6.770;2022-09-09T13:04:24;100678.38;;;18.64;67.42
3294;BME280;1659;51.470;6.770;2022-09-09T13:06:51;100685.78;;;18.59;68.04
3294;BME280;1659;51.470;6.770;2022-09-09T13:09:19;100681.97;;;18.47;68.71
3294;BME280;1659;51.470;6.770;2022-09-09T13:11:48;100675.84;;;18.27;70.20
3294;BME280;1659;51.470;6.770;2022-09-09T13:14:19;100682.09;;;18.10;71.68
3294;BME280;1659;51.470;6.770;2022-09-09T13:16:55;100679.88;;;18.01;72.50
3294;BME280;1659;51.470;6.770;2022-09-09T13:19:23;100670.38;;;17.96;73.03
3294;BME280;1659;51.470;6.770;2022-09-09T13:21:53;100666.91;;;18.11;73.51
3294;BME280;1659;51.470;6.770;2022-09-09T13:24:29;100665.47;;;18.39;73.57
3294;BME280;1659;51.470;6.770;2022-09-09T13:26:57;100656.63;;;18.54;73.33
3294;BME280;1659;51.470;6.770;2022-09-09T13:29:24;100654.19;;;18.83;73.13
3294;BME280;1659;51.470;6.770;2022-09-09T13:31:51;100644.59;;;19.42;72.48